createdAt,value
2018-07-26T00:00:00.610Z,26.10
2018-07-26T00:02:28.454Z,26.10
2018-07-26T00:04:56.594Z,26.20
2018-07-26T00:07:24.545Z,26.10
2018-07-26T00:12:20.230Z,26.00
2018-07-26T00:17:15.866Z,25.50
2018-07-26T00:19:43.700Z,25.40
2018-07-26T00:22:11.487Z,25.60
2018-07-26T00:24:39.313Z,25.60
2018-07-26T00:27:07.458Z,25.70
2018-07-26T00:29:36.620Z,25.70
2018-07-26T00:32:04.431Z,25.70
2018-07-26T00:34:32.274Z,25.70
2018-07-26T00:37:00.034Z,25.70
2018-07-26T00:39:27.880Z,25.50
2018-07-26T00:44:23.509Z,25.10
2018-07-26T00:46:51.305Z,25.10
2018-07-26T00:49:19.106Z,25.30
2018-07-26T00:51:46.961Z,25.40
2018-07-26T00:54:14.807Z,25.50
2018-07-26T00:56:42.626Z,25.50
2018-07-26T00:59:10.454Z,25.40
2018-07-26T01:01:38.254Z,25.40
2018-07-26T01:04:06.225Z,25.40
2018-07-26T01:09:01.853Z,25.10
2018-07-26T01:13:57.506Z,25.10
2018-07-26T01:16:25.405Z,25.00
2018-07-26T01:18:53.206Z,24.90
2018-07-26T01:21:21.030Z,24.90
2018-07-26T01:23:48.898Z,24.80
2018-07-26T01:26:16.761Z,24.90
2018-07-26T01:28:44.608Z,24.80
2018-07-26T01:31:12.414Z,24.70
2018-07-26T01:33:40.266Z,24.70
2018-07-26T01:36:08.171Z,24.80
2018-07-26T01:41:03.732Z,24.50
2018-07-26T01:43:52.878Z,24.30
2018-07-26T01:46:21.915Z,24.20
2018-07-26T01:48:49.677Z,24.20
2018-07-26T01:51:17.509Z,24.20
2018-07-26T01:53:45.576Z,24.40
2018-07-26T01:58:41.226Z,24.50
2018-07-26T02:01:09.925Z,24.10
2018-07-26T02:03:38.344Z,24.10
2018-07-26T02:08:34.208Z,23.50
2018-07-26T02:11:02.060Z,23.30
2018-07-26T02:13:30.732Z,23.10
2018-07-26T02:18:26.559Z,22.90
2018-07-26T02:23:22.596Z,23.60
2018-07-26T02:28:18.124Z,23.70
2018-07-26T02:33:14.258Z,23.60
2018-07-26T02:35:42.352Z,23.70
2018-07-26T02:40:38.528Z,23.80
2018-07-26T02:43:06.910Z,23.60
2018-07-26T02:45:34.843Z,23.70
2018-07-26T02:48:02.661Z,23.80
2018-07-26T02:50:30.463Z,23.80
2018-07-26T02:52:58.290Z,23.60
2018-07-26T02:55:26.134Z,23.60
2018-07-26T02:57:54.131Z,23.50
2018-07-26T03:00:21.985Z,23.50
2018-07-26T03:02:50.075Z,23.60
2018-07-26T03:05:17.960Z,23.60
2018-07-26T03:10:13.592Z,24.10
2018-07-26T03:15:10.834Z,23.40
2018-07-26T03:17:39.595Z,23.40
2018-07-26T03:20:07.456Z,23.30
2018-07-26T03:22:35.364Z,23.00
2018-07-26T03:25:03.247Z,22.80
2018-07-26T03:32:26.699Z,22.90
2018-07-26T03:34:54.487Z,23.00
2018-07-26T03:37:22.331Z,23.00
2018-07-26T03:39:50.502Z,22.50
2018-07-26T03:42:18.371Z,22.40
2018-07-26T03:44:46.243Z,22.10
2018-07-26T03:47:14.196Z,22.00
2018-07-26T03:49:41.988Z,22.00
2018-07-26T03:52:09.803Z,22.30
2018-07-26T03:54:37.620Z,22.70
2018-07-26T03:57:05.573Z,22.90
2018-07-26T03:59:33.371Z,23.00
2018-07-26T04:04:28.905Z,22.90
2018-07-26T04:09:24.441Z,22.90
2018-07-26T04:11:52.344Z,22.90
2018-07-26T04:14:20.132Z,23.10
2018-07-26T04:16:47.966Z,23.30
2018-07-26T04:19:15.798Z,23.30
2018-07-26T04:24:11.292Z,22.80
2018-07-26T04:26:39.105Z,22.80
2018-07-26T04:29:06.918Z,23.00
2018-07-26T04:31:34.798Z,23.10
2018-07-26T04:34:02.626Z,23.10
2018-07-26T04:36:30.425Z,23.10
2018-07-26T04:38:58.245Z,23.20
2018-07-26T04:41:26.074Z,23.00
2018-07-26T04:46:21.704Z,22.90
2018-07-26T04:51:17.378Z,23.10
2018-07-26T04:53:45.250Z,23.20
2018-07-26T04:56:13.104Z,23.00
2018-07-26T04:58:40.885Z,22.80
2018-07-26T05:01:08.729Z,22.90
2018-07-26T05:03:36.584Z,23.20
2018-07-26T05:06:04.603Z,23.10
2018-07-26T05:08:32.572Z,23.20
2018-07-26T05:11:00.460Z,23.20
2018-07-26T05:13:28.258Z,23.30
2018-07-26T05:15:56.165Z,23.60
2018-07-26T05:18:24.056Z,23.50
2018-07-26T05:20:51.920Z,23.60
2018-07-26T05:23:19.707Z,23.50
2018-07-26T05:28:15.364Z,23.40
2018-07-26T05:30:43.144Z,23.50
2018-07-26T05:33:10.966Z,23.50
2018-07-26T05:35:38.863Z,23.50
2018-07-26T05:38:06.745Z,24.20
2018-07-26T05:40:34.505Z,24.30
2018-07-26T05:43:02.482Z,24.10
2018-07-26T05:45:30.319Z,24.00
2018-07-26T05:48:02.159Z,24.00
2018-07-26T05:50:29.931Z,23.90
2018-07-26T05:52:57.816Z,23.90
2018-07-26T05:55:26.506Z,24.50
2018-07-26T05:57:54.443Z,25.00
2018-07-26T06:00:22.321Z,25.00
2018-07-26T06:02:50.137Z,25.00
2018-07-26T06:05:18.047Z,25.10
2018-07-26T06:07:45.964Z,25.30
2018-07-26T06:10:16.261Z,25.40
2018-07-26T06:12:44.104Z,25.40
2018-07-26T06:15:12.509Z,25.50
2018-07-26T06:17:40.866Z,25.50
2018-07-26T06:20:10.434Z,25.60
2018-07-26T06:25:06.764Z,25.70
2018-07-26T06:27:34.635Z,25.70
2018-07-26T06:30:02.591Z,25.70
2018-07-26T06:32:30.368Z,25.80
2018-07-26T06:34:58.201Z,25.80
2018-07-26T06:37:26.163Z,25.80
2018-07-26T06:39:54.105Z,25.90
2018-07-26T06:42:21.935Z,25.90
2018-07-26T06:47:17.687Z,26.00
2018-07-26T06:52:13.227Z,26.00
2018-07-26T06:54:41.142Z,26.10
2018-07-26T06:57:08.983Z,26.30
2018-07-26T06:59:42.336Z,26.30
2018-07-26T07:04:37.903Z,26.30
2018-07-26T07:07:05.750Z,26.30
2018-07-26T07:09:33.605Z,26.30
2018-07-26T07:14:29.373Z,26.50
2018-07-26T07:16:57.201Z,26.60
2018-07-26T07:21:52.757Z,26.60
2018-07-26T07:24:21.596Z,26.70
2018-07-26T07:26:50.875Z,26.70
2018-07-26T07:29:18.815Z,26.70
2018-07-26T07:31:46.583Z,26.70
2018-07-26T07:34:14.360Z,26.80
2018-07-26T07:36:42.174Z,26.80
2018-07-26T07:44:07.347Z,26.90
2018-07-26T07:46:35.260Z,26.90
2018-07-26T07:49:03.040Z,27.00
2018-07-26T07:51:30.876Z,26.90
2018-07-26T07:53:58.944Z,27.10
2018-07-26T07:56:26.758Z,27.10
2018-07-26T07:58:54.698Z,27.10
2018-07-26T08:03:50.162Z,27.20
2018-07-26T08:06:18.133Z,27.20
2018-07-26T08:08:46.059Z,27.30
2018-07-26T08:11:13.834Z,27.30
2018-07-26T08:13:41.745Z,27.40
2018-07-26T08:16:09.650Z,27.40
2018-07-26T08:21:05.158Z,27.60
2018-07-26T08:23:33.143Z,27.60
2018-07-26T08:28:28.706Z,27.80
2018-07-26T08:30:56.697Z,27.70
2018-07-26T08:33:24.500Z,27.80
2018-07-26T08:35:52.283Z,27.80
2018-07-26T08:38:20.172Z,27.90
2018-07-26T08:40:48.013Z,27.80
2018-07-26T08:45:43.523Z,28.10
2018-07-26T08:53:06.872Z,28.20
2018-07-26T08:55:34.792Z,28.30
2018-07-26T08:58:02.650Z,28.20
2018-07-26T09:02:58.238Z,28.30
2018-07-26T09:05:26.076Z,28.50
2018-07-26T09:07:53.876Z,28.50
2018-07-26T09:10:21.704Z,28.40
2018-07-26T09:15:17.271Z,28.60
2018-07-26T09:17:45.157Z,28.70
2018-07-26T09:27:36.440Z,28.90
2018-07-26T09:35:00.716Z,29.30
2018-07-26T09:37:28.520Z,29.30
2018-07-26T09:39:56.448Z,29.30
2018-07-26T09:42:24.265Z,29.20
2018-07-26T09:44:52.102Z,29.40
2018-07-26T09:49:47.646Z,29.60
2018-07-26T09:52:15.846Z,29.60
2018-07-26T09:54:43.663Z,29.60
2018-07-26T09:57:11.432Z,29.50
2018-07-26T10:02:07.020Z,29.70
2018-07-26T10:04:34.884Z,29.70
2018-07-26T10:07:02.833Z,29.80
2018-07-26T10:09:30.642Z,29.90
2018-07-26T10:11:58.429Z,29.80
2018-07-26T10:14:27.059Z,29.80
2018-07-26T10:16:54.920Z,29.70
2018-07-26T10:19:22.721Z,29.90
2018-07-26T10:26:45.917Z,30.00
2018-07-26T10:31:41.427Z,30.10
2018-07-26T10:34:09.199Z,30.30
2018-07-26T10:39:07.262Z,30.30
2018-07-26T10:41:35.089Z,30.40
2018-07-26T10:44:02.971Z,30.50
2018-07-26T10:46:30.863Z,30.50
2018-07-26T10:48:58.686Z,30.50
2018-07-26T10:51:26.545Z,30.50
2018-07-26T10:58:50.453Z,30.70
2018-07-26T11:01:18.709Z,30.70
2018-07-26T11:06:14.236Z,30.60
2018-07-26T11:11:09.883Z,30.70
2018-07-26T11:13:37.634Z,30.70
2018-07-26T11:18:33.210Z,30.90
2018-07-26T11:23:28.834Z,31.20
2018-07-26T11:25:56.749Z,31.20
2018-07-26T11:28:24.969Z,31.20
2018-07-26T11:30:52.842Z,31.30
2018-07-26T11:35:48.484Z,31.40
2018-07-26T11:38:16.408Z,31.50
2018-07-26T11:40:44.242Z,31.40
2018-07-26T11:43:12.089Z,31.40
2018-07-26T11:45:39.991Z,31.40
2018-07-26T11:48:07.832Z,31.40
2018-07-26T11:50:35.708Z,31.60
2018-07-26T11:53:03.532Z,31.40
2018-07-26T11:55:31.429Z,31.40
2018-07-26T11:57:59.298Z,31.40
2018-07-26T12:00:27.115Z,31.80
2018-07-26T12:02:55.020Z,31.60
2018-07-26T12:05:22.887Z,31.80
2018-07-26T12:07:51.397Z,31.90
2018-07-26T12:17:43.344Z,32.40
2018-07-26T12:20:11.286Z,32.40
2018-07-26T12:22:39.181Z,32.70
2018-07-26T12:25:07.097Z,32.80
2018-07-26T12:27:34.895Z,32.40
2018-07-26T12:32:30.511Z,32.80
2018-07-26T12:37:29.526Z,32.70
2018-07-26T12:39:57.377Z,32.60
2018-07-26T12:44:52.984Z,32.80
2018-07-26T12:47:20.910Z,33.00
2018-07-26T12:49:48.771Z,32.90
2018-07-26T12:52:18.482Z,32.80
2018-07-26T12:54:46.312Z,32.60
2018-07-26T12:57:14.219Z,32.50
2018-07-26T12:59:42.059Z,32.40
2018-07-26T13:02:09.897Z,32.40
2018-07-26T13:09:33.344Z,33.00
2018-07-26T13:12:01.192Z,33.20
2018-07-26T13:14:29.038Z,33.30
2018-07-26T13:16:56.897Z,33.50
2018-07-26T13:19:24.860Z,33.50
2018-07-26T13:21:52.714Z,33.40
2018-07-26T13:24:20.664Z,33.40
2018-07-26T13:26:48.474Z,33.40
2018-07-26T13:31:44.068Z,33.40
2018-07-26T13:34:11.917Z,33.60
2018-07-26T13:36:39.818Z,33.70
2018-07-26T13:39:10.637Z,33.70
2018-07-26T13:46:34.028Z,33.90
2018-07-26T13:51:29.696Z,34.00
2018-07-26T13:56:25.348Z,34.00
2018-07-26T13:58:53.219Z,33.50
2018-07-26T14:01:21.068Z,33.40
2018-07-26T14:03:49.162Z,33.30
2018-07-26T14:06:17.033Z,33.30
2018-07-26T14:08:45.041Z,33.20
2018-07-26T14:13:40.717Z,32.90
2018-07-26T14:16:08.699Z,32.70
2018-07-26T14:18:36.742Z,32.80
2018-07-26T14:23:38.314Z,32.70
2018-07-26T14:26:07.303Z,32.60
2018-07-26T14:28:35.172Z,33.00
2018-07-26T14:31:03.043Z,33.70
2018-07-26T14:33:30.904Z,34.40
2018-07-26T14:35:58.697Z,34.80
2018-07-26T14:38:26.606Z,34.90
2018-07-26T14:40:54.473Z,35.00
2018-07-26T14:45:50.244Z,35.30
2018-07-26T14:48:18.197Z,35.70
2018-07-26T14:50:46.016Z,36.00
2018-07-26T14:53:13.848Z,36.10
2018-07-26T14:55:42.093Z,35.50
2018-07-26T15:00:37.756Z,34.60
2018-07-26T15:03:05.703Z,34.40
2018-07-26T15:05:33.534Z,34.20
2018-07-26T15:08:01.349Z,34.30
2018-07-26T15:10:29.182Z,34.80
2018-07-26T15:12:57.059Z,34.90
2018-07-26T15:15:24.949Z,35.60
2018-07-26T15:17:52.839Z,36.90
2018-07-26T15:20:20.702Z,37.80
2018-07-26T15:25:22.022Z,38.90
2018-07-26T15:27:49.921Z,39.10
2018-07-26T15:30:17.857Z,39.20
2018-07-26T15:32:45.754Z,39.90
2018-07-26T15:37:41.784Z,40.40
2018-07-26T15:40:09.577Z,40.50
2018-07-26T15:42:37.533Z,41.20
2018-07-26T15:45:05.826Z,41.10
2018-07-26T15:47:33.714Z,41.40
2018-07-26T15:50:01.584Z,40.90
2018-07-26T15:52:29.470Z,41.80
2018-07-26T15:59:52.935Z,41.60
2018-07-26T16:12:12.588Z,40.90
2018-07-26T16:14:40.528Z,41.80
2018-07-26T16:17:08.474Z,41.50
2018-07-26T16:19:36.332Z,41.80
2018-07-26T16:22:04.175Z,42.00
2018-07-26T16:24:32.104Z,41.40
2018-07-26T16:31:55.770Z,41.00
2018-07-26T16:34:23.646Z,40.60
2018-07-26T16:36:51.573Z,41.10
2018-07-26T16:39:19.532Z,40.50
2018-07-26T16:41:47.450Z,40.50
2018-07-26T16:46:43.079Z,40.30
2018-07-26T16:51:38.780Z,40.40
2018-07-26T16:54:06.647Z,40.50
2018-07-26T16:56:34.492Z,40.20
2018-07-26T16:59:02.629Z,39.90
2018-07-26T17:01:30.403Z,39.90
2018-07-26T17:06:26.124Z,40.10
2018-07-26T17:11:21.873Z,40.40
2018-07-26T17:13:49.916Z,39.70
2018-07-26T17:16:17.822Z,40.00
2018-07-26T17:18:45.761Z,39.20
2018-07-26T17:23:41.407Z,39.30
2018-07-26T17:26:09.272Z,38.80
2018-07-26T17:33:32.706Z,39.70
2018-07-26T17:36:00.568Z,39.90
2018-07-26T17:38:28.443Z,39.80
2018-07-26T17:40:56.283Z,39.20
2018-07-26T17:43:24.382Z,39.30
2018-07-26T17:45:52.232Z,38.90
2018-07-26T17:48:20.076Z,38.00
2018-07-26T17:50:47.959Z,37.90
2018-07-26T17:53:15.806Z,38.50
2018-07-26T17:55:43.636Z,38.90
2018-07-26T18:00:39.190Z,38.10
2018-07-26T18:05:34.782Z,38.50
2018-07-26T18:12:58.234Z,38.70
2018-07-26T18:15:26.136Z,38.50
2018-07-26T18:17:53.975Z,37.80
2018-07-26T18:20:21.835Z,37.10
2018-07-26T18:22:49.668Z,36.90
2018-07-26T18:25:17.599Z,36.90
2018-07-26T18:30:13.464Z,37.00
2018-07-26T18:32:41.315Z,36.80
2018-07-26T18:35:09.195Z,36.80
2018-07-26T18:42:33.322Z,35.40
2018-07-26T18:45:01.207Z,34.70
2018-07-26T18:47:29.036Z,34.30
2018-07-26T18:49:56.960Z,34.60
2018-07-26T18:52:24.574Z,34.60
2018-07-26T18:54:52.657Z,34.90
2018-07-26T18:57:20.313Z,34.50
2018-07-26T18:59:47.998Z,34.40
2018-07-26T19:02:15.554Z,34.00
2018-07-26T19:04:43.188Z,34.00
2018-07-26T19:07:10.810Z,33.40
2018-07-26T19:09:38.378Z,33.50
2018-07-26T19:12:05.981Z,33.30
2018-07-26T19:14:33.875Z,33.10
2018-07-26T19:17:01.589Z,32.90
2018-07-26T19:19:29.208Z,32.40
2018-07-26T19:21:56.746Z,32.20
2018-07-26T19:24:24.318Z,31.90
2018-07-26T19:26:51.887Z,31.60
2018-07-26T19:29:19.475Z,31.50
2018-07-26T19:31:47.081Z,31.40
2018-07-26T19:36:42.347Z,31.50
2018-07-26T19:39:11.587Z,31.40
2018-07-26T19:41:39.485Z,31.40
2018-07-26T19:44:07.105Z,31.20
2018-07-26T19:46:34.682Z,30.70
2018-07-26T19:49:03.321Z,30.70
2018-07-26T19:51:31.082Z,30.70
2018-07-26T19:53:58.747Z,30.60
2018-07-26T19:56:26.315Z,30.30
2018-07-26T19:58:53.820Z,30.20
2018-07-26T20:03:48.952Z,30.20
2018-07-26T20:06:16.753Z,30.30
2018-07-26T20:08:44.376Z,30.30
2018-07-26T20:11:12.048Z,30.60
2018-07-26T20:16:07.234Z,30.20
2018-07-26T20:21:02.338Z,30.30
2018-07-26T20:25:57.479Z,29.90
2018-07-26T20:28:25.028Z,30.10
2018-07-26T20:35:47.966Z,29.80
2018-07-26T20:38:15.524Z,29.70
2018-07-26T20:40:43.079Z,29.80
2018-07-26T20:43:10.600Z,29.40
2018-07-26T20:45:38.126Z,29.10
2018-07-26T20:48:05.784Z,29.00
2018-07-26T20:50:33.395Z,29.20
2018-07-26T20:53:00.900Z,29.20
2018-07-26T20:55:28.451Z,29.00
2018-07-26T20:57:55.992Z,28.80
2018-07-26T21:00:23.522Z,28.60
2018-07-26T21:02:51.053Z,28.60
2018-07-26T21:05:18.725Z,28.60
2018-07-26T21:07:46.224Z,28.80
2018-07-26T21:10:13.809Z,28.90
2018-07-26T21:12:41.405Z,28.60
2018-07-26T21:15:09.499Z,28.60
2018-07-26T21:17:37.082Z,28.50
2018-07-26T21:20:04.784Z,28.20
2018-07-26T21:24:59.952Z,27.80
2018-07-26T21:27:27.508Z,27.80
2018-07-26T21:29:55.012Z,27.80
2018-07-26T21:32:22.632Z,27.90
2018-07-26T21:34:50.134Z,28.10
2018-07-26T21:39:45.306Z,28.30
2018-07-26T21:42:12.918Z,28.30
2018-07-26T21:44:40.507Z,28.20
2018-07-26T21:47:08.201Z,28.00
2018-07-26T21:49:35.717Z,27.90
2018-07-26T21:52:03.265Z,27.80
2018-07-26T21:54:30.822Z,27.70
2018-07-26T21:56:58.381Z,27.60
2018-07-26T21:59:25.998Z,27.50
2018-07-26T22:01:53.580Z,27.50
2018-07-26T22:04:21.204Z,27.50
2018-07-26T22:06:48.817Z,27.50
2018-07-26T22:09:16.395Z,27.40
2018-07-26T22:11:43.953Z,27.20
2018-07-26T22:14:11.623Z,27.00
2018-07-26T22:21:34.886Z,26.90
2018-07-26T22:24:02.468Z,27.00
2018-07-26T22:26:30.049Z,26.90
2018-07-26T22:28:57.836Z,27.00
2018-07-26T22:31:25.413Z,26.90
2018-07-26T22:33:53.562Z,27.00
2018-07-26T22:36:21.158Z,26.90
2018-07-26T22:38:49.577Z,26.90
2018-07-26T22:41:17.135Z,26.90
2018-07-26T22:43:44.613Z,27.00
2018-07-26T22:46:12.252Z,27.10
2018-07-26T22:48:40.015Z,26.90
2018-07-26T22:51:07.564Z,26.90
2018-07-26T22:53:35.080Z,26.80
2018-07-26T22:56:02.622Z,26.80
2018-07-26T22:58:30.136Z,26.60
2018-07-26T23:00:57.682Z,26.40
2018-07-26T23:03:25.174Z,26.40
2018-07-26T23:05:52.720Z,26.40
2018-07-26T23:08:20.224Z,26.30
2018-07-26T23:13:15.310Z,26.40
2018-07-26T23:15:42.795Z,26.40
2018-07-26T23:20:37.764Z,26.30
2018-07-26T23:23:05.299Z,26.10
2018-07-26T23:25:32.824Z,26.20
2018-07-26T23:28:00.361Z,26.20
2018-07-26T23:30:27.884Z,26.10
2018-07-26T23:32:55.455Z,26.00
2018-07-26T23:35:23.038Z,26.00
2018-07-26T23:37:50.562Z,25.80
2018-07-26T23:40:18.058Z,25.70
2018-07-26T23:42:45.671Z,25.70
2018-07-26T23:45:13.156Z,25.80
2018-07-26T23:47:40.659Z,25.80
2018-07-26T23:50:08.192Z,25.80
2018-07-26T23:52:35.717Z,25.60
2018-07-26T23:55:03.287Z,25.50
2018-07-26T23:57:30.804Z,25.90
2018-07-26T23:59:58.289Z,25.90
